METAR Data
IDs: Format: Raw Decoded Include TAF

Data at: 0116 UTC 16 Jan 2019

NZWN 160100Z AUTO 17015KT 9999 BKN026/// 18/12 Q1013 NOSIG
NZWN 160030Z AUTO 16017KT 9999 SCT021/// BKN027/// 18/12 Q1014 NOSIG
NZWN 160000Z AUTO 17017KT 9999 BKN028/// 18/11 Q1014 NOSIG
NZWN 152330Z AUTO 17017KT 9999 BKN024/// BKN045/// 16/11 Q1014 NOSIG
NZWN 152300Z AUTO 16018KT 9999 FEW046/// BKN080/// 18/11 Q1014 NOSIG
NZWN 152230Z AUTO 17019KT 9999 SCT027/// BKN070/// 18/10 Q1014 NOSIG

TAF NZWN 152310Z 1600/1700 18015G25KT 9999 -SHRA FEW015 BKN020
  BECMG 1607/1609 16008KT
  TEMPO 1609/1615 BKN006
  PROB30 1609/1615 BKN003
  BECMG 1614/1616 36010KT